METAR Data

Data at: 0923 UTC 23 Jan 2019

METAR for:KATL (Atlanta/Hartsfield-J, GA, US)
Text:KATL 230852Z 09010KT 10SM OVC015 06/M01 A3030 RMK AO2 SLP266 CIG 013V018 T00561011 56019
Temperature: 5.6°C ( 42°F)
Dewpoint: -1.1°C ( 30°F) [RH = 62%]
Pressure (altimeter):30.30 inches Hg (1026.2 mb) [Sea level pressure: 1026.6 mb]
Winds:from the E (90 degrees) at 12 MPH (10 knots; 5.1 m/s)
Visibility:10 or more sm (16+ km)
Ceiling:1500 feet AGL
Clouds: overcast cloud deck at 1500 feet AGL